createdAt,value
2023-06-22T00:00:57.122Z,100981.72
2023-06-22T00:03:26.867Z,100977.13
2023-06-22T00:05:57.802Z,100978.28
2023-06-22T00:08:25.912Z,100972.44
2023-06-22T00:10:54.055Z,100975.31
2023-06-22T00:13:22.105Z,100981.41
2023-06-22T00:15:50.236Z,100974.56
2023-06-22T00:18:18.336Z,100980.91
2023-06-22T00:20:46.901Z,100981.75
2023-06-22T00:23:18.383Z,100981.50
2023-06-22T00:25:46.470Z,100985.72
2023-06-22T00:28:14.633Z,100977.84
2023-06-22T00:30:42.787Z,100983.28
2023-06-22T00:33:10.984Z,100971.94
2023-06-22T00:35:42.651Z,100978.94
2023-06-22T00:38:10.851Z,100970.56
2023-06-22T00:40:40.753Z,100974.94
2023-06-22T00:43:09.196Z,100975.91
2023-06-22T00:45:37.597Z,100968.13
2023-06-22T00:48:06.832Z,100967.25
2023-06-22T00:50:36.383Z,100969.31
2023-06-22T00:53:10.205Z,100966.59
2023-06-22T00:55:44.423Z,100971.28
2023-06-22T00:58:13.361Z,100971.50
2023-06-22T01:00:44.055Z,100973.38
2023-06-22T01:03:13.080Z,100972.63
2023-06-22T01:05:42.446Z,100977.34
2023-06-22T01:08:25.502Z,100974.41
2023-06-22T01:11:03.439Z,100967.06
2023-06-22T01:13:38.000Z,100976.84
2023-06-22T01:16:10.340Z,100964.59
2023-06-22T01:18:44.104Z,100971.56
2023-06-22T01:21:18.454Z,100978.22
2023-06-22T01:24:13.062Z,100972.22
2023-06-22T01:26:51.242Z,100983.88
2023-06-22T01:29:23.392Z,100985.75
2023-06-22T01:31:54.044Z,100980.84
2023-06-22T01:34:23.617Z,100992.06
2023-06-22T01:36:54.256Z,100993.84
2023-06-22T01:39:24.000Z,100984.38
2023-06-22T01:41:56.048Z,100986.25
2023-06-22T01:44:28.494Z,100985.22
2023-06-22T01:46:57.473Z,100990.53
2023-06-22T01:49:25.701Z,100985.47
2023-06-22T01:51:55.445Z,100984.88
2023-06-22T01:54:23.668Z,100984.88
2023-06-22T01:56:52.904Z,100984.88
2023-06-22T01:59:33.713Z,100982.28
2023-06-22T02:02:05.489Z,100976.94
2023-06-22T02:04:38.629Z,100979.56
2023-06-22T02:07:15.147Z,100984.72
2023-06-22T02:09:46.647Z,100979.38
2023-06-22T02:12:18.485Z,100980.16
2023-06-22T02:14:48.890Z,100979.38
2023-06-22T02:17:21.497Z,100985.75
2023-06-22T02:19:49.669Z,100983.94
2023-06-22T02:22:17.947Z,100984.56
2023-06-22T02:24:46.160Z,100981.69
2023-06-22T02:27:17.492Z,100982.44
2023-06-22T02:29:47.118Z,100979.31
2023-06-22T02:32:16.515Z,100982.28
2023-06-22T02:34:49.009Z,100987.69
2023-06-22T02:37:18.196Z,100990.47
2023-06-22T02:39:46.452Z,100983.75
2023-06-22T02:42:14.645Z,100986.53
2023-06-22T02:44:44.703Z,100983.84
2023-06-22T02:47:16.643Z,100984.03
2023-06-22T02:49:46.173Z,100979.63
2023-06-22T02:52:14.617Z,100976.00
2023-06-22T02:54:42.827Z,100969.06
2023-06-22T02:57:14.677Z,100973.63
2023-06-22T02:59:44.372Z,100973.72
2023-06-22T03:02:15.733Z,100979.63
2023-06-22T03:04:44.709Z,100979.47
2023-06-22T03:07:13.092Z,100976.75
2023-06-22T03:09:41.992Z,100974.13
2023-06-22T03:12:11.128Z,100978.44
2023-06-22T03:14:52.321Z,100979.53
2023-06-22T03:17:22.065Z,100981.13
2023-06-22T03:19:50.213Z,100971.34
2023-06-22T03:22:18.399Z,100979.03
2023-06-22T03:24:46.543Z,100983.34
2023-06-22T03:27:14.753Z,100974.47
2023-06-22T03:29:42.916Z,100974.41
2023-06-22T03:32:11.251Z,100973.72
2023-06-22T03:34:40.960Z,100976.59
2023-06-22T03:37:09.184Z,100969.00
2023-06-22T03:39:37.380Z,100972.59
2023-06-22T03:42:06.404Z,100978.69
2023-06-22T03:44:34.675Z,100977.94
2023-06-22T03:47:03.436Z,100977.09
2023-06-22T03:49:31.711Z,100968.47
2023-06-22T03:52:02.178Z,100967.53
2023-06-22T03:54:31.080Z,100971.00
2023-06-22T03:56:59.921Z,100977.66
2023-06-22T03:59:28.508Z,100976.41
2023-06-22T04:01:56.822Z,100977.03
2023-06-22T04:04:25.042Z,100979.47
2023-06-22T04:06:53.272Z,100992.34
2023-06-22T04:09:23.602Z,100986.09
2023-06-22T04:12:00.795Z,100997.31
2023-06-22T04:14:29.029Z,100985.97
2023-06-22T04:16:58.068Z,100992.06
2023-06-22T04:19:26.847Z,100990.31
2023-06-22T04:21:55.673Z,100983.28
2023-06-22T04:24:23.977Z,100979.91
2023-06-22T04:26:55.937Z,100979.31
2023-06-22T04:29:31.297Z,100976.06
2023-06-22T04:32:04.253Z,100987.50
2023-06-22T04:34:32.635Z,100985.97
2023-06-22T04:37:00.865Z,100981.81
2023-06-22T04:39:29.213Z,100991.03
2023-06-22T04:42:01.687Z,100992.88
2023-06-22T04:44:31.484Z,100989.34
2023-06-22T04:47:03.354Z,100984.94
2023-06-22T04:49:35.806Z,100990.88
2023-06-22T04:52:06.671Z,100998.22
2023-06-22T04:54:35.696Z,101000.59
2023-06-22T04:57:05.245Z,100994.41
2023-06-22T04:59:34.903Z,101002.28
2023-06-22T05:02:04.453Z,101006.44
2023-06-22T05:04:33.851Z,101001.81
2023-06-22T05:07:02.627Z,101011.84
2023-06-22T05:09:31.268Z,101019.22
2023-06-22T05:12:01.132Z,101014.50
2023-06-22T05:14:29.417Z,101019.56
2023-06-22T05:17:00.231Z,101023.38
2023-06-22T05:19:34.854Z,101024.06
2023-06-22T05:22:03.655Z,101020.41
2023-06-22T05:24:31.933Z,101025.47
2023-06-22T05:27:00.284Z,101033.78
2023-06-22T05:29:29.453Z,101037.69
2023-06-22T05:31:59.097Z,101038.94
2023-06-22T05:34:27.426Z,101041.97
2023-06-22T05:36:55.764Z,101042.53
2023-06-22T05:39:24.139Z,101037.72
2023-06-22T05:41:54.685Z,101039.25
2023-06-22T05:44:23.301Z,101043.03
2023-06-22T05:46:51.819Z,101040.59
2023-06-22T05:49:23.215Z,101038.78
2023-06-22T05:51:51.890Z,101044.69
2023-06-22T05:54:20.444Z,101039.56
2023-06-22T05:56:48.741Z,101030.78
2023-06-22T05:59:17.041Z,101036.59
2023-06-22T06:01:45.444Z,101042.97
2023-06-22T06:04:13.726Z,101044.69
2023-06-22T06:06:43.474Z,101042.84
2023-06-22T06:09:12.858Z,101032.84
2023-06-22T06:11:42.404Z,101036.03
2023-06-22T06:14:10.812Z,101042.06
2023-06-22T06:16:39.116Z,101032.22
2023-06-22T06:19:07.441Z,101036.47
2023-06-22T06:21:35.793Z,101037.28
2023-06-22T06:24:05.985Z,101045.03
2023-06-22T06:26:36.867Z,101041.72
2023-06-22T06:29:05.204Z,101043.66
2023-06-22T06:31:33.566Z,101041.91
2023-06-22T06:34:01.971Z,101041.56
2023-06-22T06:36:30.195Z,101032.63
2023-06-22T06:38:58.657Z,101030.53
2023-06-22T06:41:28.486Z,101024.44
2023-06-22T06:43:56.775Z,101022.81
2023-06-22T06:46:25.042Z,101028.50
2023-06-22T06:48:53.311Z,101031.38
2023-06-22T06:51:21.534Z,101030.88
2023-06-22T06:53:49.785Z,101036.88
2023-06-22T06:56:18.479Z,101031.41
2023-06-22T06:58:48.331Z,101034.34
2023-06-22T07:01:16.574Z,101052.78
2023-06-22T07:03:45.264Z,101047.66
2023-06-22T07:06:13.590Z,101056.53
2023-06-22T07:08:42.091Z,101060.00
2023-06-22T07:11:10.289Z,101065.06
2023-06-22T07:13:39.462Z,101064.13
2023-06-22T07:16:09.106Z,101065.47
2023-06-22T07:18:37.308Z,101062.25
2023-06-22T07:21:07.703Z,101056.38
2023-06-22T07:23:36.116Z,101059.78
2023-06-22T07:26:04.332Z,101061.84
2023-06-22T07:28:38.127Z,101065.34
2023-06-22T07:31:06.570Z,101064.91
2023-06-22T07:33:36.478Z,101078.13
2023-06-22T07:36:09.020Z,101080.38
2023-06-22T07:38:37.421Z,101076.97
2023-06-22T07:41:06.958Z,101079.13
2023-06-22T07:43:35.726Z,101081.16
2023-06-22T07:46:04.402Z,101077.72
2023-06-22T07:48:32.656Z,101082.09
2023-06-22T07:51:02.345Z,101077.44
2023-06-22T07:53:30.638Z,101075.44
2023-06-22T07:55:58.824Z,101085.97
2023-06-22T07:58:27.030Z,101092.94
2023-06-22T08:00:55.536Z,101096.09
2023-06-22T08:03:23.846Z,101082.16
2023-06-22T08:05:52.241Z,101082.81
2023-06-22T08:08:22.078Z,101086.59
2023-06-22T08:10:50.345Z,101087.47
2023-06-22T08:13:18.512Z,101077.50
2023-06-22T08:15:47.996Z,101078.28
2023-06-22T08:18:18.186Z,101080.03
2023-06-22T08:20:46.495Z,101072.09
2023-06-22T08:23:14.649Z,101075.81
2023-06-22T08:25:44.294Z,101068.81
2023-06-22T08:28:12.594Z,101072.56
2023-06-22T08:30:40.794Z,101073.19
2023-06-22T08:33:09.073Z,101079.94
2023-06-22T08:35:37.274Z,101077.72
2023-06-22T08:38:05.407Z,101083.63
2023-06-22T08:40:34.197Z,101090.56
2023-06-22T08:43:04.030Z,101086.56
2023-06-22T08:45:32.707Z,101085.38
2023-06-22T08:48:01.234Z,101079.88
2023-06-22T08:50:29.677Z,101090.00
2023-06-22T08:52:59.163Z,101088.63
2023-06-22T08:55:28.033Z,101100.28
2023-06-22T08:57:56.460Z,101100.53
2023-06-22T09:00:26.044Z,101107.63
2023-06-22T09:02:54.462Z,101106.97
2023-06-22T09:05:23.228Z,101108.47
2023-06-22T09:07:51.468Z,101107.66
2023-06-22T09:10:19.907Z,101114.22
2023-06-22T09:12:48.216Z,101114.50
2023-06-22T09:15:28.195Z,101105.66
2023-06-22T09:17:58.874Z,101099.78
2023-06-22T09:20:27.643Z,101116.00
2023-06-22T09:22:56.203Z,101125.16
2023-06-22T09:25:24.492Z,101125.72
2023-06-22T09:27:52.733Z,101134.66
2023-06-22T09:30:21.443Z,101126.88
2023-06-22T09:32:49.686Z,101131.16
2023-06-22T09:35:19.394Z,101133.91
2023-06-22T09:37:47.727Z,101141.47
2023-06-22T09:40:18.100Z,101133.22
2023-06-22T09:42:46.545Z,101130.91
2023-06-22T09:45:14.724Z,101128.50
2023-06-22T09:47:43.922Z,101131.47
2023-06-22T09:50:12.726Z,101131.41
2023-06-22T09:52:48.343Z,101137.94
2023-06-22T09:55:17.947Z,101135.91
2023-06-22T09:57:46.274Z,101138.13
2023-06-22T10:00:16.367Z,101145.31
2023-06-22T10:02:45.577Z,101153.94
2023-06-22T10:05:14.468Z,101156.91
2023-06-22T10:07:45.699Z,101158.09
2023-06-22T10:10:14.781Z,101159.06
2023-06-22T10:12:49.026Z,101158.66
2023-06-22T10:15:17.531Z,101157.59
2023-06-22T10:17:46.235Z,101165.63
2023-06-22T10:20:14.602Z,101166.16
2023-06-22T10:22:46.513Z,101167.53
2023-06-22T10:25:15.550Z,101165.88
2023-06-22T10:27:43.820Z,101161.53
2023-06-22T10:30:14.383Z,101167.47
2023-06-22T10:32:43.765Z,101164.50
2023-06-22T10:35:14.978Z,101162.22
2023-06-22T10:37:45.414Z,101161.00
2023-06-22T10:40:16.232Z,101164.22
2023-06-22T10:42:45.333Z,101163.78
2023-06-22T10:45:14.927Z,101164.50
2023-06-22T10:47:44.284Z,101167.19
2023-06-22T10:50:13.345Z,101162.31
2023-06-22T10:52:42.760Z,101167.94
2023-06-22T10:55:12.892Z,101171.72
2023-06-22T10:57:44.580Z,101171.31
2023-06-22T11:00:14.432Z,101179.56
2023-06-22T11:02:42.772Z,101172.25
2023-06-22T11:05:11.283Z,101174.22
2023-06-22T11:10:15.561Z,101182.53
2023-06-22T11:12:44.400Z,101182.84
2023-06-22T11:15:12.788Z,101185.28
2023-06-22T11:17:41.181Z,101184.56
2023-06-22T11:20:12.477Z,101183.16
2023-06-22T11:22:41.419Z,101181.81
2023-06-22T11:25:10.156Z,101182.22
2023-06-22T11:27:39.992Z,101176.19
2023-06-22T11:30:10.301Z,101176.63
2023-06-22T11:32:38.811Z,101177.16
2023-06-22T11:35:07.405Z,101177.22
2023-06-22T11:37:35.769Z,101176.31
2023-06-22T11:40:09.712Z,101167.97
2023-06-22T11:42:40.968Z,101164.56
2023-06-22T11:45:10.542Z,101168.22
2023-06-22T11:47:40.654Z,101161.53
2023-06-22T11:50:10.080Z,101162.34
2023-06-22T11:52:39.281Z,101153.97
2023-06-22T11:55:08.816Z,101153.78
2023-06-22T11:57:39.908Z,101164.19
2023-06-22T12:00:17.164Z,101161.03
2023-06-22T12:02:46.472Z,101163.66
2023-06-22T12:05:14.897Z,101166.59
2023-06-22T12:07:43.207Z,101170.72
2023-06-22T12:10:12.118Z,101169.22
2023-06-22T12:12:41.918Z,101163.03
2023-06-22T12:15:11.472Z,101170.59
2023-06-22T12:17:41.692Z,101175.81
2023-06-22T12:20:11.580Z,101181.06
2023-06-22T12:22:40.068Z,101185.47
2023-06-22T12:25:09.939Z,101180.25
2023-06-22T12:27:38.377Z,101175.50
2023-06-22T12:30:09.484Z,101192.03
2023-06-22T12:32:38.436Z,101183.81
2023-06-22T12:35:13.194Z,101194.94
2023-06-22T12:37:42.223Z,101196.72
2023-06-22T12:40:12.061Z,101193.31
2023-06-22T12:42:40.268Z,101191.94
2023-06-22T12:45:11.184Z,101199.84
2023-06-22T12:47:39.401Z,101208.22
2023-06-22T12:50:08.786Z,101209.06
2023-06-22T12:52:40.094Z,101207.34
2023-06-22T12:55:09.447Z,101199.47
2023-06-22T12:57:37.700Z,101195.50
2023-06-22T13:00:09.255Z,101204.84
2023-06-22T13:02:38.992Z,101201.97
2023-06-22T13:05:07.833Z,101200.88
2023-06-22T13:07:35.987Z,101206.00
2023-06-22T13:10:04.787Z,101211.75
2023-06-22T13:12:33.375Z,101199.47
2023-06-22T13:15:01.900Z,101198.75
2023-06-22T13:17:30.176Z,101193.41
2023-06-22T13:20:00.292Z,101191.03
2023-06-22T13:22:31.350Z,101202.53
2023-06-22T13:25:00.304Z,101200.72
2023-06-22T13:27:28.645Z,101204.13
2023-06-22T13:29:56.801Z,101196.59
2023-06-22T13:32:25.138Z,101199.97
2023-06-22T13:34:55.848Z,101201.66
2023-06-22T13:37:25.467Z,101200.94
2023-06-22T13:39:53.732Z,101209.25
2023-06-22T13:42:21.901Z,101203.59
2023-06-22T13:44:50.092Z,101214.72
2023-06-22T13:47:18.333Z,101219.31
2023-06-22T13:49:46.558Z,101218.91
2023-06-22T13:52:14.787Z,101218.94
2023-06-22T13:54:44.591Z,101219.41
2023-06-22T13:57:12.805Z,101223.31
2023-06-22T13:59:41.094Z,101213.41
2023-06-22T14:02:09.551Z,101224.78
2023-06-22T14:04:37.747Z,101231.09
2023-06-22T14:07:06.403Z,101234.00
2023-06-22T14:09:34.647Z,101240.16
2023-06-22T14:12:07.292Z,101236.81
2023-06-22T14:14:35.939Z,101242.84
2023-06-22T14:17:04.192Z,101245.88
2023-06-22T14:19:32.509Z,101245.97
2023-06-22T14:22:00.707Z,101247.94
2023-06-22T14:24:30.834Z,101254.53
2023-06-22T14:26:59.529Z,101251.91
2023-06-22T14:29:29.082Z,101255.91
2023-06-22T14:31:57.338Z,101261.50
2023-06-22T14:34:25.548Z,101259.22
2023-06-22T14:36:53.804Z,101257.31
2023-06-22T14:39:22.681Z,101265.63
2023-06-22T14:41:50.931Z,101266.94
2023-06-22T14:44:19.113Z,101268.19
2023-06-22T14:46:48.778Z,101269.69
2023-06-22T14:49:16.981Z,101267.81
2023-06-22T14:51:45.140Z,101268.44
2023-06-22T14:54:13.380Z,101272.84
2023-06-22T14:56:41.694Z,101267.69
2023-06-22T14:59:10.187Z,101267.16
2023-06-22T15:01:40.240Z,101283.34
2023-06-22T15:04:11.264Z,101275.50
2023-06-22T15:06:39.629Z,101273.84
2023-06-22T15:09:10.780Z,101275.78
2023-06-22T15:11:39.009Z,101279.69
2023-06-22T15:14:07.556Z,101277.22
2023-06-22T15:16:35.987Z,101285.63
2023-06-22T15:19:04.149Z,101283.59
2023-06-22T15:21:34.466Z,101279.31
2023-06-22T15:24:03.366Z,101284.53
2023-06-22T15:26:31.533Z,101284.66
2023-06-22T15:28:59.718Z,101288.84
2023-06-22T15:31:29.230Z,101283.38
2023-06-22T15:33:57.454Z,101291.66
2023-06-22T15:36:25.588Z,101291.78
2023-06-22T15:38:55.460Z,101287.03
2023-06-22T15:41:24.205Z,101291.41
2023-06-22T15:43:52.355Z,101292.09
2023-06-22T15:46:20.577Z,101289.59
2023-06-22T15:48:50.919Z,101286.75
2023-06-22T15:51:19.933Z,101284.53
2023-06-22T15:53:48.147Z,101288.84
2023-06-22T15:56:19.377Z,101302.72
2023-06-22T15:58:47.602Z,101289.50
2023-06-22T16:01:15.827Z,101289.41
2023-06-22T16:03:44.169Z,101296.97
2023-06-22T16:06:12.389Z,101306.59
2023-06-22T16:08:40.790Z,101295.47
2023-06-22T16:11:09.333Z,101299.16
2023-06-22T16:13:40.128Z,101301.25
2023-06-22T16:16:08.661Z,101309.22
2023-06-22T16:18:36.857Z,101307.53
2023-06-22T16:21:06.122Z,101300.97
2023-06-22T16:23:34.383Z,101304.13
2023-06-22T16:26:02.508Z,101314.28
2023-06-22T16:28:30.730Z,101309.81
2023-06-22T16:31:00.369Z,101313.66
2023-06-22T16:33:28.592Z,101318.06
2023-06-22T16:35:56.749Z,101317.94
2023-06-22T16:38:24.956Z,101321.56
2023-06-22T16:40:53.411Z,101322.09
2023-06-22T16:43:22.826Z,101322.50
2023-06-22T16:45:51.299Z,101332.13
2023-06-22T16:48:20.940Z,101329.06
2023-06-22T16:50:49.394Z,101340.97
2023-06-22T16:53:18.539Z,101336.56
2023-06-22T16:55:50.699Z,101338.19
2023-06-22T16:58:24.323Z,101334.81
2023-06-22T17:00:53.620Z,101330.94
2023-06-22T17:03:28.340Z,101332.41
2023-06-22T17:06:01.497Z,101330.84
2023-06-22T17:08:35.581Z,101326.66
2023-06-22T17:11:04.016Z,101328.06
2023-06-22T17:13:32.470Z,101335.53
2023-06-22T17:16:02.455Z,101327.22
2023-06-22T17:18:33.045Z,101343.16
2023-06-22T17:21:01.261Z,101335.69
2023-06-22T17:23:30.106Z,101337.34
2023-06-22T17:26:01.097Z,101340.84
2023-06-22T17:28:30.435Z,101345.81
2023-06-22T17:31:13.444Z,101346.97
2023-06-22T17:33:43.389Z,101343.34
2023-06-22T17:36:15.821Z,101348.47
2023-06-22T17:38:44.252Z,101351.13
2023-06-22T17:41:12.466Z,101345.06
2023-06-22T17:43:48.168Z,101336.19
2023-06-22T17:46:17.985Z,101337.22
2023-06-22T17:48:50.186Z,101340.84
2023-06-22T17:51:19.016Z,101344.44
2023-06-22T17:53:51.728Z,101345.88
2023-06-22T17:56:20.984Z,101342.81
2023-06-22T17:58:55.646Z,101358.22
2023-06-22T18:01:31.581Z,101351.44
2023-06-22T18:04:02.522Z,101359.03
2023-06-22T18:06:32.301Z,101352.31
2023-06-22T18:09:05.365Z,101348.50
2023-06-22T18:11:36.338Z,101348.41
2023-06-22T18:14:06.237Z,101346.56
2023-06-22T18:16:36.427Z,101343.75
2023-06-22T18:19:06.299Z,101347.88
2023-06-22T18:21:34.643Z,101347.63
2023-06-22T18:24:03.613Z,101347.00
2023-06-22T18:26:33.217Z,101354.19
2023-06-22T18:29:01.343Z,101345.13
2023-06-22T18:31:29.710Z,101349.13
2023-06-22T18:34:00.100Z,101349.25
2023-06-22T18:36:31.476Z,101366.44
2023-06-22T18:39:04.236Z,101362.44
2023-06-22T18:41:37.386Z,101369.94
2023-06-22T18:44:05.929Z,101369.94
2023-06-22T18:46:36.177Z,101365.59
2023-06-22T18:49:12.934Z,101369.19
2023-06-22T18:51:58.721Z,101379.75
2023-06-22T18:54:35.215Z,101387.06
2023-06-22T18:57:05.104Z,101377.47
2023-06-22T18:59:47.771Z,101384.75
2023-06-22T19:02:18.431Z,101380.59
2023-06-22T19:04:47.322Z,101377.75
2023-06-22T19:07:17.200Z,101381.69
2023-06-22T19:10:24.603Z,101377.69
2023-06-22T19:12:53.810Z,101372.81
2023-06-22T19:15:22.723Z,101379.44
2023-06-22T19:17:51.657Z,101383.03
2023-06-22T19:20:21.527Z,101377.66
2023-06-22T19:22:58.241Z,101384.72
2023-06-22T19:25:29.539Z,101382.22
2023-06-22T19:27:59.516Z,101389.84
2023-06-22T19:30:29.414Z,101392.81
2023-06-22T19:32:59.008Z,101392.69
2023-06-22T19:35:29.376Z,101389.75
2023-06-22T19:37:59.165Z,101396.94
2023-06-22T19:40:27.956Z,101403.97
2023-06-22T19:42:56.854Z,101403.66
2023-06-22T19:45:25.449Z,101410.94
2023-06-22T19:47:54.029Z,101415.03
2023-06-22T19:50:25.879Z,101416.38
2023-06-22T19:52:57.019Z,101422.38
2023-06-22T19:55:26.634Z,101417.69
2023-06-22T19:57:54.801Z,101411.69
2023-06-22T20:00:24.488Z,101401.34
2023-06-22T20:02:55.377Z,101403.31
2023-06-22T20:05:24.295Z,101404.00
2023-06-22T20:07:54.756Z,101408.16
2023-06-22T20:10:24.540Z,101414.47
2023-06-22T20:12:55.382Z,101424.19
2023-06-22T20:15:25.146Z,101423.34
2023-06-22T20:18:03.461Z,101424.50
2023-06-22T20:20:36.957Z,101433.16
2023-06-22T20:23:07.002Z,101431.59
2023-06-22T20:25:37.899Z,101426.25
2023-06-22T20:28:10.740Z,101428.50
2023-06-22T20:30:40.863Z,101425.97
2023-06-22T20:33:17.382Z,101440.19
2023-06-22T20:35:47.218Z,101447.13
2023-06-22T20:38:15.738Z,101449.69
2023-06-22T20:40:43.946Z,101456.28
2023-06-22T20:43:15.984Z,101440.19
2023-06-22T20:45:44.570Z,101446.16
2023-06-22T20:48:15.667Z,101459.00
2023-06-22T20:50:44.489Z,101461.16
2023-06-22T20:53:13.206Z,101468.41
2023-06-22T20:55:41.403Z,101475.84
2023-06-22T20:58:10.496Z,101479.56
2023-06-22T21:00:46.025Z,101476.16
2023-06-22T21:03:14.506Z,101482.28
2023-06-22T21:05:43.708Z,101473.16
2023-06-22T21:08:11.982Z,101473.69
2023-06-22T21:10:40.610Z,101470.56
2023-06-22T21:13:10.402Z,101466.41
2023-06-22T21:15:38.811Z,101475.31
2023-06-22T21:18:09.588Z,101472.53
2023-06-22T21:20:38.005Z,101474.19
2023-06-22T21:23:07.358Z,101468.25
2023-06-22T21:25:36.179Z,101480.00
2023-06-22T21:28:04.420Z,101489.84
2023-06-22T21:30:32.683Z,101479.88
2023-06-22T21:33:00.969Z,101483.09
2023-06-22T21:35:31.054Z,101478.28
2023-06-22T21:37:59.555Z,101482.78
2023-06-22T21:40:28.919Z,101482.69
2023-06-22T21:43:01.122Z,101476.59
2023-06-22T21:45:32.070Z,101485.41
2023-06-22T21:48:01.073Z,101492.59
2023-06-22T21:50:30.837Z,101473.56
2023-06-22T21:52:59.273Z,101467.84
2023-06-22T21:55:27.844Z,101474.31
2023-06-22T21:57:57.435Z,101483.19
2023-06-22T22:00:25.948Z,101491.06
2023-06-22T22:02:54.339Z,101491.16
2023-06-22T22:05:23.921Z,101496.44
2023-06-22T22:07:53.712Z,101489.56
2023-06-22T22:10:24.942Z,101489.88
2023-06-22T22:12:53.252Z,101511.16
2023-06-22T22:15:21.638Z,101504.28
2023-06-22T22:17:49.985Z,101496.53
2023-06-22T22:20:18.723Z,101491.63
2023-06-22T22:22:47.036Z,101499.06
2023-06-22T22:25:16.816Z,101490.53
2023-06-22T22:27:45.001Z,101483.00
2023-06-22T22:30:14.905Z,101494.41
2023-06-22T22:32:43.211Z,101486.78
2023-06-22T22:35:11.662Z,101504.38
2023-06-22T22:37:39.988Z,101499.47
2023-06-22T22:40:11.442Z,101494.59
2023-06-22T22:42:41.534Z,101501.03
2023-06-22T22:45:12.518Z,101493.94
2023-06-22T22:47:40.986Z,101494.00
2023-06-22T22:50:10.357Z,101487.19
2023-06-22T22:52:39.650Z,101484.13
2023-06-22T22:55:10.282Z,101483.59
2023-06-22T22:57:41.923Z,101491.38
2023-06-22T23:00:13.554Z,101494.00
2023-06-22T23:02:43.319Z,101497.31
2023-06-22T23:05:13.289Z,101495.47
2023-06-22T23:07:43.114Z,101506.75
2023-06-22T23:10:13.927Z,101492.16
2023-06-22T23:12:45.516Z,101488.31
2023-06-22T23:15:14.035Z,101495.69
2023-06-22T23:17:44.617Z,101496.69
2023-06-22T23:20:16.193Z,101497.56
2023-06-22T23:22:44.449Z,101494.13
2023-06-22T23:25:15.420Z,101498.63
2023-06-22T23:27:45.545Z,101497.22
2023-06-22T23:30:16.417Z,101498.28
2023-06-22T23:32:46.280Z,101496.72
2023-06-22T23:35:14.894Z,101503.75
2023-06-22T23:37:43.986Z,101514.19
2023-06-22T23:40:17.748Z,101520.31
2023-06-22T23:42:48.768Z,101524.09
2023-06-22T23:45:18.641Z,101517.44
2023-06-22T23:47:47.725Z,101511.63
2023-06-22T23:50:16.692Z,101511.78
2023-06-22T23:52:50.069Z,101512.69
2023-06-22T23:55:19.789Z,101506.78
2023-06-22T23:57:49.474Z,101511.09
